createdAt,value
2022-09-10T00:01:26.608Z,96971.00
2022-09-10T00:03:54.724Z,96967.00
2022-09-10T00:06:27.456Z,96967.00
2022-09-10T00:08:57.249Z,96965.00
2022-09-10T00:11:26.437Z,96952.00
2022-09-10T00:13:53.314Z,96955.00
2022-09-10T00:16:20.233Z,96956.00
2022-09-10T00:18:48.314Z,96944.00
2022-09-10T00:21:18.579Z,96957.00
2022-09-10T00:23:45.715Z,96960.00
2022-09-10T00:26:22.301Z,96958.00
2022-09-10T00:28:51.005Z,96955.00
2022-09-10T00:31:21.588Z,96958.00
2022-09-10T00:33:50.345Z,96962.00
2022-09-10T00:36:27.299Z,96951.00
2022-09-10T00:38:57.778Z,96946.00
2022-09-10T00:41:25.959Z,96957.00
2022-09-10T00:43:55.371Z,96956.00
2022-09-10T00:46:33.522Z,96963.00
2022-09-10T00:49:09.797Z,96954.00
2022-09-10T00:51:37.389Z,96952.00
2022-09-10T00:54:05.435Z,96952.00
2022-09-10T00:56:34.637Z,96955.00
2022-09-10T00:59:03.551Z,96951.00
2022-09-10T01:01:31.244Z,96948.00
2022-09-10T01:03:58.739Z,96939.00
2022-09-10T01:06:25.528Z,96949.00
2022-09-10T01:08:52.510Z,96942.00
2022-09-10T01:11:45.476Z,96934.00
2022-09-10T01:14:41.405Z,96931.00
2022-09-10T01:17:57.159Z,96933.00
2022-09-10T01:20:40.204Z,96922.00
2022-09-10T01:23:18.204Z,96935.00
2022-09-10T01:26:10.365Z,96928.00
2022-09-10T01:28:48.850Z,96930.00
2022-09-10T01:31:54.515Z,96924.00
2022-09-10T01:34:43.948Z,96924.00
2022-09-10T01:37:21.549Z,96927.00
2022-09-10T01:39:50.914Z,96919.00
2022-09-10T01:42:18.534Z,96918.00
2022-09-10T01:44:48.674Z,96922.00
2022-09-10T01:47:45.325Z,96929.00
2022-09-10T01:50:58.176Z,96919.00
2022-09-10T01:54:00.053Z,96933.00
2022-09-10T01:57:18.208Z,96927.00
2022-09-10T02:00:10.741Z,96916.00
2022-09-10T02:02:48.354Z,96913.00
2022-09-10T02:05:18.653Z,96918.00
2022-09-10T02:07:47.873Z,96914.00
2022-09-10T02:10:15.411Z,96918.00
2022-09-10T02:12:42.369Z,96917.00
2022-09-10T02:15:11.464Z,96919.00
2022-09-10T02:17:39.825Z,96926.00
2022-09-10T02:20:10.988Z,96918.00
2022-09-10T02:22:42.706Z,96918.00
2022-09-10T02:25:10.348Z,96918.00
2022-09-10T02:27:38.261Z,96921.00
2022-09-10T02:30:07.570Z,96912.00
2022-09-10T02:32:34.309Z,96919.00
2022-09-10T02:35:01.040Z,96911.00
2022-09-10T02:37:28.251Z,96906.00
2022-09-10T02:39:55.343Z,96908.00
2022-09-10T02:42:22.607Z,96911.00
2022-09-10T02:44:49.889Z,96908.00
2022-09-10T02:47:16.657Z,96916.00
2022-09-10T02:49:43.434Z,96912.00
2022-09-10T02:52:10.256Z,96915.00
2022-09-10T02:54:37.044Z,96910.00
2022-09-10T02:57:04.168Z,96910.00
2022-09-10T02:59:32.640Z,96910.00
2022-09-10T03:01:59.650Z,96914.00
2022-09-10T03:04:26.420Z,96912.00
2022-09-10T03:06:54.832Z,96906.00
2022-09-10T03:09:22.695Z,96914.00
2022-09-10T03:11:50.750Z,96905.00
2022-09-10T03:14:20.907Z,96908.00
2022-09-10T03:16:47.962Z,96904.00
2022-09-10T03:19:15.677Z,96914.00
2022-09-10T03:21:42.992Z,96910.00
2022-09-10T03:24:12.648Z,96912.00
2022-09-10T03:26:43.317Z,96906.00
2022-09-10T03:29:10.124Z,96898.00
2022-09-10T03:31:37.236Z,96907.00
2022-09-10T03:34:04.424Z,96906.00
2022-09-10T03:36:31.385Z,96904.00
2022-09-10T03:38:59.158Z,96902.00
2022-09-10T03:41:28.388Z,96910.00
2022-09-10T03:43:55.898Z,96905.00
2022-09-10T03:46:23.779Z,96903.00
2022-09-10T03:48:55.059Z,96902.00
2022-09-10T03:51:23.225Z,96903.00
2022-09-10T03:53:50.017Z,96900.00
2022-09-10T03:56:19.906Z,96907.00
2022-09-10T03:58:49.091Z,96915.00
2022-09-10T04:01:17.382Z,96911.00
2022-09-10T04:03:44.804Z,96907.00
2022-09-10T04:06:13.435Z,96902.00
2022-09-10T04:08:40.890Z,96893.00
2022-09-10T04:11:07.654Z,96902.00
2022-09-10T04:13:34.637Z,96903.00
2022-09-10T04:16:01.820Z,96903.00
2022-09-10T04:18:29.238Z,96903.00
2022-09-10T04:20:56.382Z,96911.00
2022-09-10T04:23:23.277Z,96910.00
2022-09-10T04:25:50.677Z,96903.00
2022-09-10T04:28:17.736Z,96901.00
2022-09-10T04:30:45.355Z,96902.00
2022-09-10T04:33:12.135Z,96904.00
2022-09-10T04:35:39.573Z,96908.00
2022-09-10T04:38:07.990Z,96910.00
2022-09-10T04:40:35.019Z,96904.00
2022-09-10T04:43:02.175Z,96904.00
2022-09-10T04:45:29.480Z,96904.00
2022-09-10T04:47:56.567Z,96908.00
2022-09-10T04:50:23.358Z,96902.00
2022-09-10T04:52:50.082Z,96907.00
2022-09-10T04:55:16.917Z,96907.00
2022-09-10T04:57:43.634Z,96907.00
2022-09-10T05:00:12.263Z,96898.00
2022-09-10T05:02:39.268Z,96904.00
2022-09-10T05:05:06.907Z,96898.00
2022-09-10T05:07:33.675Z,96899.00
2022-09-10T05:10:00.413Z,96896.00
2022-09-10T05:12:27.132Z,96903.00
2022-09-10T05:14:55.024Z,96896.00
2022-09-10T05:17:21.854Z,96905.00
2022-09-10T05:19:48.643Z,96903.00
2022-09-10T05:22:16.178Z,96906.00
2022-09-10T05:24:44.072Z,96906.00
2022-09-10T05:27:10.806Z,96901.00
2022-09-10T05:29:37.559Z,96917.00
2022-09-10T05:32:04.442Z,96931.00
2022-09-10T05:34:31.172Z,96926.00
2022-09-10T05:36:57.927Z,96923.00
2022-09-10T05:39:24.685Z,96920.00
2022-09-10T05:41:51.415Z,96928.00
2022-09-10T05:44:19.067Z,96922.00
2022-09-10T05:46:45.797Z,96923.00
2022-09-10T05:49:13.078Z,96923.00
2022-09-10T05:51:39.890Z,96925.00
2022-09-10T05:54:06.738Z,96929.00
2022-09-10T05:56:34.659Z,96927.00
2022-09-10T05:59:03.896Z,96926.00
2022-09-10T06:01:32.030Z,96933.00
2022-09-10T06:03:59.418Z,96936.00
2022-09-10T06:06:28.056Z,96932.00
2022-09-10T06:08:56.123Z,96932.00
2022-09-10T06:11:23.234Z,96940.00
2022-09-10T06:13:50.934Z,96939.00
2022-09-10T06:16:17.933Z,96940.00
2022-09-10T06:18:45.287Z,96951.00
2022-09-10T06:21:18.302Z,96943.00
2022-09-10T06:23:45.213Z,96946.00
2022-09-10T06:26:17.017Z,96951.00
2022-09-10T06:28:44.541Z,96953.00
2022-09-10T06:31:16.926Z,96955.00
2022-09-10T06:33:48.977Z,96945.00
2022-09-10T06:36:16.191Z,96955.00
2022-09-10T06:38:45.000Z,96949.00
2022-09-10T06:41:13.819Z,96964.00
2022-09-10T06:43:41.546Z,96965.00
2022-09-10T06:46:50.945Z,96960.00
2022-09-10T06:49:07.195Z,96957.00
2022-09-10T06:51:34.089Z,96959.00
2022-09-10T06:54:01.318Z,96961.00
2022-09-10T06:56:28.288Z,96962.00
2022-09-10T06:58:59.310Z,96969.00
2022-09-10T07:01:29.240Z,96965.00
2022-09-10T07:03:58.864Z,96971.00
2022-09-10T07:06:27.527Z,96974.00
2022-09-10T07:08:58.220Z,96971.00
2022-09-10T07:11:28.028Z,96973.00
2022-09-10T07:13:55.075Z,96969.00
2022-09-10T07:16:24.737Z,96971.00
2022-09-10T07:18:56.754Z,96980.00
2022-09-10T07:21:27.269Z,96981.00
2022-09-10T07:24:01.252Z,96976.00
2022-09-10T07:26:29.033Z,96977.00
2022-09-10T07:28:58.312Z,96979.00
2022-09-10T07:31:31.838Z,96973.00
2022-09-10T07:33:58.639Z,96976.00
2022-09-10T07:36:25.672Z,96979.00
2022-09-10T07:39:01.739Z,96983.00
2022-09-10T07:41:29.798Z,96981.00
2022-09-10T07:43:57.415Z,96982.00
2022-09-10T07:46:25.514Z,96987.00
2022-09-10T07:49:00.803Z,96990.00
2022-09-10T07:51:30.341Z,96988.00
2022-09-10T07:53:59.546Z,96993.00
2022-09-10T07:56:27.143Z,96997.00
2022-09-10T07:58:57.357Z,96990.00
2022-09-10T08:01:24.388Z,96989.00
2022-09-10T08:03:51.264Z,96988.00
2022-09-10T08:06:18.327Z,96998.00
2022-09-10T08:08:45.998Z,96999.00
2022-09-10T08:11:17.480Z,96989.00
2022-09-10T08:13:50.761Z,97003.00
2022-09-10T08:16:20.924Z,97001.00
2022-09-10T08:18:48.657Z,97001.00
2022-09-10T08:21:16.952Z,97005.00
2022-09-10T08:23:50.886Z,97004.00
2022-09-10T08:26:18.296Z,97004.00
2022-09-10T08:28:45.200Z,97009.00
2022-09-10T08:31:12.784Z,97010.00
2022-09-10T08:33:40.485Z,97003.00
2022-09-10T08:36:13.808Z,97006.00
2022-09-10T08:38:42.356Z,97015.00
2022-09-10T08:41:29.686Z,97015.00
2022-09-10T08:44:03.399Z,97014.00
2022-09-10T08:46:56.426Z,97016.00
2022-09-10T08:49:56.398Z,97015.00
2022-09-10T08:52:41.204Z,97014.00
2022-09-10T08:55:17.055Z,97017.00
2022-09-10T08:57:52.846Z,97012.00
2022-09-10T09:00:24.191Z,97019.00
2022-09-10T09:03:02.218Z,97017.00
2022-09-10T09:05:43.217Z,97012.00
2022-09-10T09:08:15.134Z,97023.00
2022-09-10T09:10:50.283Z,97017.00
2022-09-10T09:13:32.789Z,97018.00
2022-09-10T09:16:27.994Z,97018.00
2022-09-10T09:19:06.115Z,97024.00
2022-09-10T09:21:52.113Z,97023.00
2022-09-10T09:24:35.327Z,97019.00
2022-09-10T09:27:09.979Z,97023.00
2022-09-10T09:29:43.603Z,97023.00
2022-09-10T09:32:16.204Z,97009.00
2022-09-10T09:35:33.289Z,97020.00
2022-09-10T09:38:27.810Z,97020.00
2022-09-10T09:41:07.790Z,97016.00
2022-09-10T09:44:22.885Z,97011.00
2022-09-10T09:46:49.863Z,97016.00
2022-09-10T09:49:17.526Z,97016.00
2022-09-10T09:51:47.849Z,97011.00
2022-09-10T09:55:10.168Z,97006.00
2022-09-10T09:57:19.512Z,97002.00
2022-09-10T09:59:49.398Z,97004.00
2022-09-10T10:02:21.901Z,97005.00
2022-09-10T10:05:07.498Z,96998.00
2022-09-10T10:07:36.300Z,96997.00
2022-09-10T10:10:07.303Z,97007.00
2022-09-10T10:12:36.987Z,97005.00
2022-09-10T10:15:03.987Z,97005.00
2022-09-10T10:17:36.714Z,97003.00
2022-09-10T10:20:16.142Z,97003.00
2022-09-10T10:22:46.239Z,97005.00
2022-09-10T10:25:42.903Z,97000.00
2022-09-10T10:28:25.664Z,97001.00
2022-09-10T10:30:55.274Z,96987.00
2022-09-10T10:33:29.051Z,96992.00
2022-09-10T10:36:06.945Z,96989.00
2022-09-10T10:38:40.474Z,96996.00
2022-09-10T10:41:47.292Z,96986.00
2022-09-10T10:44:48.006Z,96977.00
2022-09-10T10:47:47.017Z,96979.00
2022-09-10T10:50:18.323Z,96983.00
2022-09-10T10:53:03.891Z,96976.00
2022-09-10T10:55:57.091Z,96978.00
2022-09-10T10:58:50.130Z,96983.00
2022-09-10T11:01:26.945Z,96976.00
2022-09-10T11:04:27.277Z,96966.00
2022-09-10T11:07:23.198Z,96961.00
2022-09-10T11:10:03.814Z,96962.00
2022-09-10T11:12:37.815Z,96962.00
2022-09-10T11:15:30.317Z,96961.00
2022-09-10T11:18:42.868Z,96956.00
2022-09-10T11:21:24.848Z,96955.00
2022-09-10T11:24:18.722Z,96949.00
2022-09-10T11:26:53.958Z,96950.00
2022-09-10T11:29:34.542Z,96940.00
2022-09-10T11:32:27.287Z,96946.00
2022-09-10T11:35:19.117Z,96946.00
2022-09-10T11:38:11.323Z,96936.00
2022-09-10T11:41:04.250Z,96937.00
2022-09-10T11:44:16.420Z,96942.00
2022-09-10T11:47:04.591Z,96935.00
2022-09-10T11:49:53.176Z,96933.00
2022-09-10T11:52:22.221Z,96924.00
2022-09-10T11:54:49.320Z,96924.00
2022-09-10T11:57:32.541Z,96923.00
2022-09-10T12:00:18.309Z,96928.00
2022-09-10T12:03:27.131Z,96934.00
2022-09-10T12:06:07.199Z,96936.00
2022-09-10T12:08:45.124Z,96932.00
2022-09-10T12:11:20.663Z,96941.00
2022-09-10T12:13:50.142Z,96941.00
2022-09-10T12:16:30.585Z,96927.00
2022-09-10T12:18:59.956Z,96934.00
2022-09-10T12:21:49.634Z,96931.00
2022-09-10T12:24:38.086Z,96924.00
2022-09-10T12:27:06.793Z,96924.00
2022-09-10T12:29:36.648Z,96923.00
2022-09-10T12:32:09.746Z,96933.00
2022-09-10T12:34:37.439Z,96922.00
2022-09-10T12:37:04.238Z,96921.00
2022-09-10T12:39:32.264Z,96928.00
2022-09-10T12:42:24.357Z,96925.00
2022-09-10T12:44:51.258Z,96923.00
2022-09-10T12:47:17.964Z,96924.00
2022-09-10T12:49:48.765Z,96921.00
2022-09-10T12:52:44.900Z,96927.00
2022-09-10T12:56:02.072Z,96920.00
2022-09-10T12:59:02.437Z,96921.00
2022-09-10T13:01:46.679Z,96929.00
2022-09-10T13:04:36.120Z,96931.00
2022-09-10T13:07:25.764Z,96936.00
2022-09-10T13:10:05.080Z,96923.00
2022-09-10T13:12:35.998Z,96915.00
2022-09-10T13:15:04.924Z,96912.00
2022-09-10T13:18:01.282Z,96922.00
2022-09-10T13:20:30.651Z,96911.00
2022-09-10T13:23:04.385Z,96913.00
2022-09-10T13:25:44.908Z,96921.00
2022-09-10T13:28:30.196Z,96918.00
2022-09-10T13:31:13.503Z,96929.00
2022-09-10T13:33:49.175Z,96927.00
2022-09-10T13:36:52.245Z,96922.00
2022-09-10T13:39:59.980Z,96926.00
2022-09-10T13:42:56.774Z,96933.00
2022-09-10T13:45:29.558Z,96937.00
2022-09-10T13:48:21.782Z,96923.00
2022-09-10T13:51:13.415Z,96916.00
2022-09-10T13:53:44.231Z,96920.00
2022-09-10T13:56:21.921Z,96918.00
2022-09-10T13:58:52.911Z,96922.00
2022-09-10T14:01:19.761Z,96926.00
2022-09-10T14:03:46.824Z,96914.00
2022-09-10T14:06:19.098Z,96921.00
2022-09-10T14:08:56.226Z,96927.00
2022-09-10T14:11:30.422Z,96915.00
2022-09-10T14:14:06.983Z,96923.00
2022-09-10T14:16:46.622Z,96922.00
2022-09-10T14:19:23.383Z,96916.00
2022-09-10T14:21:51.678Z,96918.00
2022-09-10T14:24:48.058Z,96920.00
2022-09-10T14:27:25.776Z,96924.00
2022-09-10T14:30:18.238Z,96926.00
2022-09-10T14:32:46.240Z,96937.00
2022-09-10T14:35:39.123Z,96941.00
2022-09-10T14:38:30.722Z,96941.00
2022-09-10T14:41:06.670Z,96941.00
2022-09-10T14:43:38.800Z,96930.00
2022-09-10T14:46:08.401Z,96921.00
2022-09-10T14:48:37.007Z,96917.00
2022-09-10T14:51:24.897Z,96920.00
2022-09-10T14:53:55.018Z,96914.00
2022-09-10T14:56:38.538Z,96905.00
2022-09-10T14:59:35.069Z,96920.00
2022-09-10T15:02:08.216Z,96924.00
2022-09-10T15:04:35.240Z,96916.00
2022-09-10T15:07:02.650Z,96916.00
2022-09-10T15:09:29.943Z,96916.00
2022-09-10T15:12:08.680Z,96913.00
2022-09-10T15:14:36.321Z,96910.00
2022-09-10T15:17:03.296Z,96908.00
2022-09-10T15:19:30.167Z,96913.00
2022-09-10T15:21:57.762Z,96907.00
2022-09-10T15:24:25.886Z,96899.00
2022-09-10T15:26:52.636Z,96898.00
2022-09-10T15:29:19.661Z,96906.00
2022-09-10T15:31:46.948Z,96911.00
2022-09-10T15:34:14.265Z,96905.00
2022-09-10T15:36:41.865Z,96898.00
2022-09-10T15:39:12.589Z,96902.00
2022-09-10T15:41:44.356Z,96903.00
2022-09-10T15:44:11.826Z,96896.00
2022-09-10T15:46:45.337Z,96900.00
2022-09-10T15:49:12.372Z,96901.00
2022-09-10T15:51:39.360Z,96905.00
2022-09-10T15:54:06.796Z,96893.00
2022-09-10T15:56:33.620Z,96905.00
2022-09-10T15:59:00.875Z,96903.00
2022-09-10T16:01:30.913Z,96904.00
2022-09-10T16:04:02.720Z,96909.00
2022-09-10T16:06:34.540Z,96910.00
2022-09-10T16:09:04.791Z,96911.00
2022-09-10T16:11:36.134Z,96905.00
2022-09-10T16:14:06.991Z,96903.00
2022-09-10T16:16:35.835Z,96915.00
2022-09-10T16:19:03.246Z,96902.00
2022-09-10T16:21:36.413Z,96919.00
2022-09-10T16:24:05.509Z,96913.00
2022-09-10T16:26:38.650Z,96913.00
2022-09-10T16:29:19.845Z,96915.00
2022-09-10T16:31:46.679Z,96913.00
2022-09-10T16:34:18.252Z,96920.00
2022-09-10T16:36:48.671Z,96915.00
2022-09-10T16:39:17.295Z,96911.00
2022-09-10T16:41:49.297Z,96915.00
2022-09-10T16:44:17.929Z,96907.00
2022-09-10T16:46:46.943Z,96907.00
2022-09-10T16:49:15.079Z,96912.00
2022-09-10T16:51:43.413Z,96906.00
2022-09-10T16:54:13.468Z,96910.00
2022-09-10T16:56:43.816Z,96915.00
2022-09-10T16:59:21.695Z,96913.00
2022-09-10T17:01:49.942Z,96919.00
2022-09-10T17:04:27.815Z,96904.00
2022-09-10T17:06:57.251Z,96913.00
2022-09-10T17:09:24.862Z,96910.00
2022-09-10T17:11:52.059Z,96905.00
2022-09-10T17:14:19.583Z,96903.00
2022-09-10T17:16:47.957Z,96895.00
2022-09-10T17:19:23.420Z,96904.00
2022-09-10T17:21:53.038Z,96901.00
2022-09-10T17:24:22.939Z,96908.00
2022-09-10T17:26:50.754Z,96897.00
2022-09-10T17:29:22.222Z,96901.00
2022-09-10T17:31:51.527Z,96893.00
2022-09-10T17:34:21.255Z,96896.00
2022-09-10T17:36:48.713Z,96893.00
2022-09-10T17:39:16.029Z,96904.00
2022-09-10T17:41:43.734Z,96901.00
2022-09-10T17:44:11.780Z,96904.00
2022-09-10T17:46:39.398Z,96911.00
2022-09-10T17:49:06.674Z,96915.00
2022-09-10T17:51:35.040Z,96914.00
2022-09-10T17:54:03.182Z,96913.00
2022-09-10T17:56:30.591Z,96921.00
2022-09-10T17:59:03.646Z,96909.00
2022-09-10T18:01:32.765Z,96926.00
2022-09-10T18:03:59.858Z,96926.00
2022-09-10T18:06:29.261Z,96930.00
2022-09-10T18:09:03.048Z,96935.00
2022-09-10T18:11:33.551Z,96936.00
2022-09-10T18:14:01.280Z,96925.00
2022-09-10T18:16:31.961Z,96930.00
2022-09-10T18:19:03.255Z,96931.00
2022-09-10T18:21:33.687Z,96934.00
2022-09-10T18:24:03.143Z,96939.00
2022-09-10T18:26:38.183Z,96942.00
2022-09-10T18:29:10.380Z,96946.00
2022-09-10T18:31:43.931Z,96944.00
2022-09-10T18:34:17.524Z,96950.00
2022-09-10T18:36:47.731Z,96950.00
2022-09-10T18:39:14.704Z,96956.00
2022-09-10T18:41:42.861Z,96951.00
2022-09-10T18:44:25.352Z,96974.00
2022-09-10T18:46:53.481Z,96967.00
2022-09-10T18:49:24.279Z,96969.00
2022-09-10T18:51:52.520Z,96974.00
2022-09-10T18:54:20.400Z,96968.00
2022-09-10T18:56:48.804Z,96971.00
2022-09-10T18:59:21.523Z,96973.00
2022-09-10T19:01:49.866Z,96969.00
2022-09-10T19:04:21.632Z,96973.00
2022-09-10T19:06:49.553Z,96972.00
2022-09-10T19:09:22.527Z,96980.00
2022-09-10T19:11:53.114Z,96975.00
2022-09-10T19:14:32.388Z,96980.00
2022-09-10T19:17:01.039Z,96977.00
2022-09-10T19:19:32.119Z,96980.00
2022-09-10T19:22:06.111Z,96979.00
2022-09-10T19:27:21.015Z,96975.00
2022-09-10T19:29:49.611Z,96963.00
2022-09-10T19:32:17.034Z,96973.00
2022-09-10T19:34:44.144Z,96962.00
2022-09-10T19:37:11.208Z,96961.00
2022-09-10T19:39:38.091Z,96966.00
2022-09-10T19:42:06.608Z,96958.00
2022-09-10T19:44:33.679Z,96966.00
2022-09-10T19:47:00.838Z,96969.00
2022-09-10T19:49:27.641Z,96976.00
2022-09-10T19:51:54.428Z,96977.00
2022-09-10T19:54:22.803Z,96970.00
2022-09-10T19:56:49.746Z,96976.00
2022-09-10T19:59:16.974Z,96962.00
2022-09-10T20:01:45.773Z,96970.00
2022-09-10T20:04:14.224Z,96965.00
2022-09-10T20:06:45.965Z,96972.00
2022-09-10T20:09:13.474Z,96968.00
2022-09-10T20:11:40.986Z,96960.00
2022-09-10T20:14:13.624Z,96965.00
2022-09-10T20:16:43.671Z,96966.00
2022-09-10T20:19:18.141Z,96958.00
2022-09-10T20:21:47.375Z,96963.00
2022-09-10T20:24:15.935Z,96965.00
2022-09-10T20:26:43.661Z,96962.00
2022-09-10T20:29:14.094Z,96961.00
2022-09-10T20:31:42.450Z,96968.00
2022-09-10T20:34:13.525Z,96962.00
2022-09-10T20:36:44.489Z,96959.00
2022-09-10T20:39:18.207Z,96955.00
2022-09-10T20:41:46.665Z,96962.00
2022-09-10T20:44:16.193Z,96963.00
2022-09-10T20:46:43.578Z,96961.00
2022-09-10T20:49:12.152Z,96964.00
2022-09-10T20:51:40.401Z,96964.00
2022-09-10T20:54:11.263Z,96981.00
2022-09-10T20:56:38.084Z,96963.00
2022-09-10T20:59:04.821Z,96970.00
2022-09-10T21:01:31.853Z,96962.00
2022-09-10T21:04:01.205Z,96970.00
2022-09-10T21:06:31.144Z,96971.00
2022-09-10T21:08:58.958Z,96956.00
2022-09-10T21:11:29.180Z,96961.00
2022-09-10T21:13:59.359Z,96965.00
2022-09-10T21:16:35.412Z,96967.00
2022-09-10T21:19:10.202Z,96967.00
2022-09-10T21:21:39.499Z,96968.00
2022-09-10T21:24:22.096Z,96969.00
2022-09-10T21:26:50.197Z,96971.00
2022-09-10T21:29:20.059Z,96965.00
2022-09-10T21:31:47.903Z,96965.00
2022-09-10T21:34:14.805Z,96966.00
2022-09-10T21:36:43.464Z,96959.00
2022-09-10T21:39:16.261Z,96964.00
2022-09-10T21:41:46.951Z,96966.00
2022-09-10T21:44:17.465Z,96965.00
2022-09-10T21:46:45.709Z,96969.00
2022-09-10T21:49:14.003Z,96964.00
2022-09-10T21:51:41.607Z,96965.00
2022-09-10T21:54:14.744Z,96967.00
2022-09-10T21:56:41.499Z,96964.00
2022-09-10T21:59:10.154Z,96966.00
2022-09-10T22:01:36.954Z,96963.00
2022-09-10T22:04:04.047Z,96962.00
2022-09-10T22:06:33.436Z,96966.00
2022-09-10T22:09:07.059Z,96965.00
2022-09-10T22:11:37.754Z,96960.00
2022-09-10T22:14:08.592Z,96956.00
2022-09-10T22:16:35.818Z,96953.00
2022-09-10T22:19:34.166Z,96952.00
2022-09-10T22:22:00.922Z,96957.00
2022-09-10T22:24:27.735Z,96951.00
2022-09-10T22:26:54.575Z,96956.00
2022-09-10T22:29:21.540Z,96948.00
2022-09-10T22:31:49.426Z,96950.00
2022-09-10T22:34:18.301Z,96950.00
2022-09-10T22:36:47.005Z,96954.00
2022-09-10T22:39:17.762Z,96955.00
2022-09-10T22:41:45.313Z,96956.00
2022-09-10T22:44:12.660Z,96956.00
2022-09-10T22:46:40.846Z,96956.00
2022-09-10T22:49:08.305Z,96958.00
2022-09-10T22:51:40.741Z,96950.00
2022-09-10T22:54:08.856Z,96957.00
2022-09-10T22:56:36.242Z,96957.00
2022-09-10T22:59:04.717Z,96947.00
2022-09-10T23:01:38.083Z,96954.00
2022-09-10T23:04:07.030Z,96949.00
2022-09-10T23:06:37.341Z,96942.00
2022-09-10T23:09:11.966Z,96954.00
2022-09-10T23:11:39.889Z,96945.00
2022-09-10T23:14:12.710Z,96948.00
2022-09-10T23:16:47.646Z,96954.00
2022-09-10T23:19:24.106Z,96959.00
2022-09-10T23:21:53.834Z,96955.00
2022-09-10T23:24:26.533Z,96957.00
2022-09-10T23:26:53.749Z,96959.00
2022-09-10T23:29:22.957Z,96963.00
2022-09-10T23:31:53.266Z,96962.00
2022-09-10T23:34:21.239Z,96962.00
2022-09-10T23:36:49.255Z,96959.00
2022-09-10T23:39:26.055Z,96956.00
2022-09-10T23:41:56.961Z,96968.00
2022-09-10T23:44:25.613Z,96964.00
2022-09-10T23:46:53.561Z,96963.00
2022-09-10T23:49:20.419Z,96957.00
2022-09-10T23:51:49.719Z,96958.00
2022-09-10T23:54:16.866Z,96959.00
2022-09-10T23:56:44.150Z,96960.00
2022-09-10T23:59:11.617Z,96957.00
